sensor_id;sensor_type;location;lat;lon;timestamp;pressure;altitude;pressure_sealevel;temperature;humidity
19751;BME280;4663;49.120;9.730;2023-04-03T00:01:08;98841.53;;;-0.58;72.40
19751;BME280;4663;49.120;9.730;2023-04-03T00:03:34;98830.34;;;-0.77;72.48
19751;BME280;4663;49.120;9.730;2023-04-03T00:05:59;98833.28;;;-0.82;72.69
19751;BME280;4663;49.120;9.730;2023-04-03T00:08:25;98832.72;;;-0.58;72.12
19751;BME280;4663;49.120;9.730;2023-04-03T00:10:51;98825.50;;;-0.42;72.35
19751;BME280;4663;49.120;9.730;2023-04-03T00:13:16;98828.72;;;-0.65;72.07
19751;BME280;4663;49.120;9.730;2023-04-03T00:15:42;98832.53;;;-0.70;72.41
19751;BME280;4663;49.120;9.730;2023-04-03T00:18:07;98827.78;;;-0.50;72.24
19751;BME280;4663;49.120;9.730;2023-04-03T00:20:34;98829.50;;;-0.49;71.65
19751;BME280;4663;49.120;9.730;2023-04-03T00:23:00;98836.88;;;-0.69;73.15
19751;BME280;4663;49.120;9.730;2023-04-03T00:25:25;98836.88;;;-0.54;72.68
19751;BME280;4663;49.120;9.730;2023-04-03T00:27:51;98837.09;;;-0.72;72.60
19751;BME280;4663;49.120;9.730;2023-04-03T00:30:18;98834.53;;;-0.30;72.15
19751;BME280;4663;49.120;9.730;2023-04-03T00:32:44;98835.25;;;-0.27;72.52
19751;BME280;4663;49.120;9.730;2023-04-03T00:35:09;98827.31;;;-0.57;71.69
19751;BME280;4663;49.120;9.730;2023-04-03T00:37:35;98839.19;;;-0.48;72.31
19751;BME280;4663;49.120;9.730;2023-04-03T00:40:01;98839.19;;;-0.48;73.24
19751;BME280;4663;49.120;9.730;2023-04-03T00:42:27;98835.72;;;-0.21;72.32
19751;BME280;4663;49.120;9.730;2023-04-03T00:47:18;98839.28;;;-0.49;72.59
19751;BME280;4663;49.120;9.730;2023-04-03T00:49:43;98833.28;;;-0.24;71.55
19751;BME280;4663;49.120;9.730;2023-04-03T00:52:15;98833.28;;;-0.38;72.02
19751;BME280;4663;49.120;9.730;2023-04-03T00:54:42;98837.28;;;-0.31;71.59
19751;BME280;4663;49.120;9.730;2023-04-03T00:57:09;98833.50;;;-0.56;72.33
19751;BME280;4663;49.120;9.730;2023-04-03T00:59:39;98831.97;;;-0.31;71.88
19751;BME280;4663;49.120;9.730;2023-04-03T01:02:07;98844.84;;;-0.39;72.70
19751;BME280;4663;49.120;9.730;2023-04-03T01:04:38;98831.69;;;-0.56;72.37
19751;BME280;4663;49.120;9.730;2023-04-03T01:07:07;98832.50;;;-0.26;71.65
19751;BME280;4663;49.120;9.730;2023-04-03T01:09:34;98820.75;;;-0.36;70.42
19751;BME280;4663;49.120;9.730;2023-04-03T01:12:36;98829.41;;;-0.33;71.21
19751;BME280;4663;49.120;9.730;2023-04-03T01:15:12;98821.25;;;-0.44;70.08
19751;BME280;4663;49.120;9.730;2023-04-03T01:17:40;98824.66;;;-0.57;70.98
19751;BME280;4663;49.120;9.730;2023-04-03T01:25:51;98836.13;;;-0.71;69.40
19751;BME280;4663;49.120;9.730;2023-04-03T01:28:29;98821.25;;;-0.59;69.01
19751;BME280;4663;49.120;9.730;2023-04-03T01:33:29;98826.09;;;-0.51;69.16
19751;BME280;4663;49.120;9.730;2023-04-03T01:35:54;98821.94;;;-0.55;69.64
19751;BME280;4663;49.120;9.730;2023-04-03T01:38:20;98828.66;;;-0.49;69.60
19751;BME280;4663;49.120;9.730;2023-04-03T01:40:45;98836.31;;;-0.74;70.19
19751;BME280;4663;49.120;9.730;2023-04-03T01:43:11;98821.25;;;-0.44;68.84
19751;BME280;4663;49.120;9.730;2023-04-03T01:45:36;98835.28;;;-0.71;70.18
19751;BME280;4663;49.120;9.730;2023-04-03T01:48:02;98834.53;;;-0.44;69.83
19751;BME280;4663;49.120;9.730;2023-04-03T01:50:27;98838.22;;;-0.61;70.57
19751;BME280;4663;49.120;9.730;2023-04-03T01:52:53;98830.81;;;-0.71;70.33
19751;BME280;4663;49.120;9.730;2023-04-03T01:55:18;98823.31;;;-0.78;70.04
19751;BME280;4663;49.120;9.730;2023-04-03T01:57:43;98836.97;;;-0.85;70.32
19751;BME280;4663;49.120;9.730;2023-04-03T02:00:09;98828.91;;;-0.69;69.82
19751;BME280;4663;49.120;9.730;2023-04-03T02:02:35;98833.50;;;-0.56;69.93
19751;BME280;4663;49.120;9.730;2023-04-03T02:05:00;98837.75;;;-0.53;69.96
19751;BME280;4663;49.120;9.730;2023-04-03T02:07:26;98840.88;;;-0.61;70.01
19751;BME280;4663;49.120;9.730;2023-04-03T02:09:51;98818.31;;;-0.39;68.88
19751;BME280;4663;49.120;9.730;2023-04-03T02:12:16;98813.97;;;-0.55;67.36
19751;BME280;4663;49.120;9.730;2023-04-03T02:14:42;98834.44;;;-0.72;69.25
19751;BME280;4663;49.120;9.730;2023-04-03T02:17:07;98827.75;;;-0.94;69.48
19751;BME280;4663;49.120;9.730;2023-04-03T02:19:36;98838.81;;;-0.56;69.86
19751;BME280;4663;49.120;9.730;2023-04-03T02:22:05;98835.19;;;-0.70;70.02
19751;BME280;4663;49.120;9.730;2023-04-03T02:24:31;98839.75;;;-0.72;69.77
19751;BME280;4663;49.120;9.730;2023-04-03T02:26:57;98837.25;;;-0.60;69.42
19751;BME280;4663;49.120;9.730;2023-04-03T02:29:23;98829.97;;;-0.57;68.74
19751;BME280;4663;49.120;9.730;2023-04-03T02:31:48;98843.41;;;-0.89;69.39
19751;BME280;4663;49.120;9.730;2023-04-03T02:34:14;98849.00;;;-0.79;69.87
19751;BME280;4663;49.120;9.730;2023-04-03T02:36:40;98839.34;;;-0.65;69.38
19751;BME280;4663;49.120;9.730;2023-04-03T02:39:05;98844.84;;;-0.83;69.71
19751;BME280;4663;49.120;9.730;2023-04-03T02:41:30;98840.38;;;-0.83;70.01
19751;BME280;4663;49.120;9.730;2023-04-03T02:44:05;98838.22;;;-0.61;69.43
19751;BME280;4663;49.120;9.730;2023-04-03T02:46:31;98826.09;;;-0.51;68.55
19751;BME280;4663;49.120;9.730;2023-04-03T02:48:57;98820.56;;;-0.77;68.27
19751;BME280;4663;49.120;9.730;2023-04-03T02:51:22;98824.13;;;-0.62;68.74
19751;BME280;4663;49.120;9.730;2023-04-03T02:53:49;98826.09;;;-0.65;68.45
19751;BME280;4663;49.120;9.730;2023-04-03T02:56:14;98823.22;;;-0.91;69.07
19751;BME280;4663;49.120;9.730;2023-04-03T02:58:40;98824.38;;;-0.81;69.05
19751;BME280;4663;49.120;9.730;2023-04-03T03:01:06;98822.00;;;-0.86;68.81
19751;BME280;4663;49.120;9.730;2023-04-03T03:03:31;98824.56;;;-0.70;68.66
19751;BME280;4663;49.120;9.730;2023-04-03T03:06:10;98826.94;;;-0.65;68.52
19751;BME280;4663;49.120;9.730;2023-04-03T03:08:37;98835.28;;;-0.71;68.81
19751;BME280;4663;49.120;9.730;2023-04-03T03:11:03;98819.25;;;-0.84;68.53
19751;BME280;4663;49.120;9.730;2023-04-03T03:13:29;98832.44;;;-0.68;68.81
19751;BME280;4663;49.120;9.730;2023-04-03T03:15:54;98823.03;;;-0.88;68.70
19751;BME280;4663;49.120;9.730;2023-04-03T03:18:21;98828.22;;;-1.01;68.80
19751;BME280;4663;49.120;9.730;2023-04-03T03:20:46;98828.72;;;-0.95;68.37
19751;BME280;4663;49.120;9.730;2023-04-03T03:23:12;98824.06;;;-0.91;68.71
19751;BME280;4663;49.120;9.730;2023-04-03T03:25:38;98828.06;;;-1.14;68.88
19751;BME280;4663;49.120;9.730;2023-04-03T03:28:04;98828.47;;;-1.06;69.02
19751;BME280;4663;49.120;9.730;2023-04-03T03:30:30;98820.78;;;-1.11;68.73
19751;BME280;4663;49.120;9.730;2023-04-03T03:32:55;98825.28;;;-0.97;68.29
19751;BME280;4663;49.120;9.730;2023-04-03T03:35:21;98831.19;;;-0.91;68.80
19751;BME280;4663;49.120;9.730;2023-04-03T03:37:46;98823.81;;;-1.02;68.47
19751;BME280;4663;49.120;9.730;2023-04-03T03:40:12;98849.50;;;-1.03;70.58
19751;BME280;4663;49.120;9.730;2023-04-03T03:42:38;98840.84;;;-0.90;69.72
19751;BME280;4663;49.120;9.730;2023-04-03T03:45:04;98832.81;;;-1.20;70.00
19751;BME280;4663;49.120;9.730;2023-04-03T03:47:29;98821.25;;;-1.18;69.35
19751;BME280;4663;49.120;9.730;2023-04-03T03:49:55;98838.81;;;-1.32;70.32
19751;BME280;4663;49.120;9.730;2023-04-03T03:52:20;98829.47;;;-1.23;69.72
19751;BME280;4663;49.120;9.730;2023-04-03T03:54:45;98841.28;;;-1.29;72.08
19751;BME280;4663;49.120;9.730;2023-04-03T03:57:11;98824.31;;;-1.41;70.37
19751;BME280;4663;49.120;9.730;2023-04-03T03:59:36;98829.88;;;-1.46;71.97
19751;BME280;4663;49.120;9.730;2023-04-03T04:02:01;98825.53;;;-1.63;70.79
19751;BME280;4663;49.120;9.730;2023-04-03T04:04:27;98833.66;;;-1.66;70.57
19751;BME280;4663;49.120;9.730;2023-04-03T04:06:52;98830.03;;;-1.49;70.35
19751;BME280;4663;49.120;9.730;2023-04-03T04:09:18;98821.84;;;-1.44;70.01
19751;BME280;4663;49.120;9.730;2023-04-03T04:11:43;98820.94;;;-1.75;69.96
19751;BME280;4663;49.120;9.730;2023-04-03T04:14:08;98828.97;;;-1.30;70.15
19751;BME280;4663;49.120;9.730;2023-04-03T04:16:35;98827.88;;;-1.42;69.67
19751;BME280;4663;49.120;9.730;2023-04-03T04:19:00;98830.41;;;-1.55;69.41
19751;BME280;4663;49.120;9.730;2023-04-03T04:21:26;98830.44;;;-1.40;70.49
19751;BME280;4663;49.120;9.730;2023-04-03T04:23:51;98835.63;;;-1.23;70.35
19751;BME280;4663;49.120;9.730;2023-04-03T04:26:17;98830.53;;;-1.42;69.79
19751;BME280;4663;49.120;9.730;2023-04-03T04:28:42;98832.28;;;-1.57;70.21
19751;BME280;4663;49.120;9.730;2023-04-03T04:31:08;98823.09;;;-1.35;69.13
19751;BME280;4663;49.120;9.730;2023-04-03T04:33:33;98823.38;;;-1.56;69.80
19751;BME280;4663;49.120;9.730;2023-04-03T04:35:58;98831.34;;;-1.56;69.75
19751;BME280;4663;49.120;9.730;2023-04-03T04:38:24;98832.13;;;-1.70;70.24
19751;BME280;4663;49.120;9.730;2023-04-03T04:40:49;98833.31;;;-1.60;70.82
19751;BME280;4663;49.120;9.730;2023-04-03T04:43:16;98841.50;;;-1.64;71.00
19751;BME280;4663;49.120;9.730;2023-04-03T04:45:42;98850.34;;;-1.96;71.80
19751;BME280;4663;49.120;9.730;2023-04-03T04:48:07;98841.38;;;-1.77;71.45
19751;BME280;4663;49.120;9.730;2023-04-03T04:50:33;98853.50;;;-1.89;71.56
19751;BME280;4663;49.120;9.730;2023-04-03T04:52:58;98850.34;;;-1.80;71.65
19751;BME280;4663;49.120;9.730;2023-04-03T04:55:23;98857.06;;;-1.74;72.56
19751;BME280;4663;49.120;9.730;2023-04-03T04:57:49;98859.31;;;-1.82;72.48
19751;BME280;4663;49.120;9.730;2023-04-03T05:00:15;98864.84;;;-2.19;73.16
19751;BME280;4663;49.120;9.730;2023-04-03T05:02:40;98866.31;;;-1.98;72.85
19751;BME280;4663;49.120;9.730;2023-04-03T05:05:06;98866.84;;;-1.75;73.05
19751;BME280;4663;49.120;9.730;2023-04-03T05:07:32;98864.44;;;-1.79;72.94
19751;BME280;4663;49.120;9.730;2023-04-03T05:09:57;98865.03;;;-1.90;74.02
19751;BME280;4663;49.120;9.730;2023-04-03T05:12:23;98869.72;;;-1.95;74.55
19751;BME280;4663;49.120;9.730;2023-04-03T05:14:48;98864.34;;;-1.78;73.70
19751;BME280;4663;49.120;9.730;2023-04-03T05:17:13;98873.91;;;-2.07;74.45
19751;BME280;4663;49.120;9.730;2023-04-03T05:19:39;98860.00;;;-1.79;73.79
19751;BME280;4663;49.120;9.730;2023-04-03T05:22:04;98863.25;;;-1.74;73.45
19751;BME280;4663;49.120;9.730;2023-04-03T05:24:29;98873.81;;;-1.90;73.54
19751;BME280;4663;49.120;9.730;2023-04-03T05:26:55;98867.66;;;-1.58;73.85
19751;BME280;4663;49.120;9.730;2023-04-03T05:29:21;98873.81;;;-1.74;75.22
19751;BME280;4663;49.120;9.730;2023-04-03T05:31:46;98885.19;;;-1.55;76.63
19751;BME280;4663;49.120;9.730;2023-04-03T05:34:13;98886.13;;;-1.56;75.41
19751;BME280;4663;49.120;9.730;2023-04-03T05:36:39;98883.63;;;-1.60;75.20
19751;BME280;4663;49.120;9.730;2023-04-03T05:39:04;98877.66;;;-1.16;75.58
19751;BME280;4663;49.120;9.730;2023-04-03T05:41:29;98885.34;;;-0.96;75.85
19751;BME280;4663;49.120;9.730;2023-04-03T05:43:55;98875.94;;;-1.01;74.47
19751;BME280;4663;49.120;9.730;2023-04-03T05:46:20;98890.56;;;-0.79;74.21
19751;BME280;4663;49.120;9.730;2023-04-03T05:48:46;98876.03;;;-1.19;72.89
19751;BME280;4663;49.120;9.730;2023-04-03T05:51:21;98885.34;;;-1.42;74.03
19751;BME280;4663;49.120;9.730;2023-04-03T05:53:47;98883.88;;;-1.01;73.63
19751;BME280;4663;49.120;9.730;2023-04-03T05:56:13;98893.03;;;-1.07;73.65
19751;BME280;4663;49.120;9.730;2023-04-03T05:58:39;98873.78;;;-0.80;73.66
19751;BME280;4663;49.120;9.730;2023-04-03T06:01:05;98896.22;;;-1.16;74.30
19751;BME280;4663;49.120;9.730;2023-04-03T06:03:31;98895.78;;;-1.09;74.47
19751;BME280;4663;49.120;9.730;2023-04-03T06:05:56;98901.91;;;-0.92;73.98
19751;BME280;4663;49.120;9.730;2023-04-03T06:08:22;98899.34;;;-0.94;73.68
19751;BME280;4663;49.120;9.730;2023-04-03T06:10:49;98913.53;;;-1.41;75.02
19751;BME280;4663;49.120;9.730;2023-04-03T06:13:15;98904.72;;;-1.26;75.54
19751;BME280;4663;49.120;9.730;2023-04-03T06:15:40;98907.13;;;-1.37;75.79
19751;BME280;4663;49.120;9.730;2023-04-03T06:18:06;98907.81;;;-1.03;75.93
19751;BME280;4663;49.120;9.730;2023-04-03T06:20:32;98904.41;;;-0.74;74.16
19751;BME280;4663;49.120;9.730;2023-04-03T06:22:57;98910.47;;;-1.03;74.60
19751;BME280;4663;49.120;9.730;2023-04-03T06:25:22;98906.63;;;-0.66;73.90
19751;BME280;4663;49.120;9.730;2023-04-03T06:27:48;98911.00;;;-0.96;74.90
19751;BME280;4663;49.120;9.730;2023-04-03T06:30:14;98916.84;;;-0.75;74.87
19751;BME280;4663;49.120;9.730;2023-04-03T06:33:33;98916.63;;;3.14;74.69
19751;BME280;4663;49.120;9.730;2023-04-03T06:36:03;98919.09;;;3.31;73.85
19751;BME280;4663;49.120;9.730;2023-04-03T06:38:29;98908.41;;;3.33;74.57
19751;BME280;4663;49.120;9.730;2023-04-03T06:40:55;98907.53;;;3.18;73.67
19751;BME280;4663;49.120;9.730;2023-04-03T06:43:23;98920.84;;;3.47;73.58
19751;BME280;4663;49.120;9.730;2023-04-03T06:45:49;98928.88;;;3.31;74.75
19751;BME280;4663;49.120;9.730;2023-04-03T06:48:14;98930.75;;;3.29;74.17
19751;BME280;4663;49.120;9.730;2023-04-03T06:50:40;98939.16;;;2.90;75.84
19751;BME280;4663;49.120;9.730;2023-04-03T06:53:06;98934.69;;;3.67;74.85
19751;BME280;4663;49.120;9.730;2023-04-03T06:55:32;98949.31;;;4.03;75.13
19751;BME280;4663;49.120;9.730;2023-04-03T06:57:58;98952.53;;;3.94;74.40
19751;BME280;4663;49.120;9.730;2023-04-03T07:00:23;98943.25;;;3.72;74.47
19751;BME280;4663;49.120;9.730;2023-04-03T07:02:50;98945.63;;;3.91;73.39
19751;BME280;4663;49.120;9.730;2023-04-03T07:05:16;98945.63;;;4.06;73.60
19751;BME280;4663;49.120;9.730;2023-04-03T07:07:42;98942.09;;;4.20;72.91
19751;BME280;4663;49.120;9.730;2023-04-03T07:10:08;98953.31;;;3.36;74.17
19751;BME280;4663;49.120;9.730;2023-04-03T07:12:33;98955.94;;;3.52;74.74
19751;BME280;4663;49.120;9.730;2023-04-03T07:14:59;98953.50;;;3.93;73.56
19751;BME280;4663;49.120;9.730;2023-04-03T07:17:24;98970.94;;;3.82;75.23
19751;BME280;4663;49.120;9.730;2023-04-03T07:19:51;98951.09;;;3.74;73.96
19751;BME280;4663;49.120;9.730;2023-04-03T07:22:16;98966.94;;;3.61;74.41
19751;BME280;4663;49.120;9.730;2023-04-03T07:24:42;98972.88;;;3.19;74.77
19751;BME280;4663;49.120;9.730;2023-04-03T07:27:07;98974.28;;;3.55;74.65
19751;BME280;4663;49.120;9.730;2023-04-03T07:29:34;98972.63;;;3.83;74.03
19751;BME280;4663;49.120;9.730;2023-04-03T07:31:59;98960.50;;;3.79;73.36
19751;BME280;4663;49.120;9.730;2023-04-03T07:34:25;98962.94;;;3.53;73.06
19751;BME280;4663;49.120;9.730;2023-04-03T07:36:50;98969.31;;;3.80;73.32
19751;BME280;4663;49.120;9.730;2023-04-03T07:39:15;98973.28;;;3.58;73.99
19751;BME280;4663;49.120;9.730;2023-04-03T07:41:41;98971.59;;;3.86;72.90
19751;BME280;4663;49.120;9.730;2023-04-03T07:44:06;98966.91;;;3.15;72.41
19751;BME280;4663;49.120;9.730;2023-04-03T07:46:34;98969.81;;;3.41;72.13
19751;BME280;4663;49.120;9.730;2023-04-03T07:49:00;98969.88;;;3.85;71.71
19751;BME280;4663;49.120;9.730;2023-04-03T07:51:25;98963.69;;;3.55;70.45
19751;BME280;4663;49.120;9.730;2023-04-03T07:53:51;98963.06;;;3.81;70.79
19751;BME280;4663;49.120;9.730;2023-04-03T07:56:17;98992.06;;;3.24;71.96
19751;BME280;4663;49.120;9.730;2023-04-03T07:58:42;98974.28;;;3.41;71.24
19751;BME280;4663;49.120;9.730;2023-04-03T08:01:08;98966.91;;;3.46;71.31
19751;BME280;4663;49.120;9.730;2023-04-03T08:03:34;98959.66;;;3.34;70.52
19751;BME280;4663;49.120;9.730;2023-04-03T08:06:04;98988.34;;;3.57;71.52
19751;BME280;4663;49.120;9.730;2023-04-03T08:08:30;98979.19;;;3.78;71.29
19751;BME280;4663;49.120;9.730;2023-04-03T08:10:58;98972.53;;;4.29;70.69
19751;BME280;4663;49.120;9.730;2023-04-03T08:13:23;98975.69;;;4.21;70.20
19751;BME280;4663;49.120;9.730;2023-04-03T08:15:49;98983.66;;;4.21;70.07
19751;BME280;4663;49.120;9.730;2023-04-03T08:18:16;98981.72;;;4.52;70.21
19751;BME280;4663;49.120;9.730;2023-04-03T08:20:42;98977.38;;;3.93;70.80
19751;BME280;4663;49.120;9.730;2023-04-03T08:23:08;98983.38;;;4.26;69.68
19751;BME280;4663;49.120;9.730;2023-04-03T08:25:37;98970.28;;;4.92;68.67
19751;BME280;4663;49.120;9.730;2023-04-03T08:28:03;98985.97;;;4.55;68.63
19751;BME280;4663;49.120;9.730;2023-04-03T08:30:29;98977.31;;;4.51;68.94
19751;BME280;4663;49.120;9.730;2023-04-03T08:32:54;98989.44;;;4.28;69.49
19751;BME280;4663;49.120;9.730;2023-04-03T08:35:20;98975.53;;;4.37;67.81
19751;BME280;4663;49.120;9.730;2023-04-03T08:37:46;98974.31;;;4.43;67.38
19751;BME280;4663;49.120;9.730;2023-04-03T08:40:16;98981.75;;;4.08;67.73
19751;BME280;4663;49.120;9.730;2023-04-03T08:43:10;98984.50;;;4.21;68.22
19751;BME280;4663;49.120;9.730;2023-04-03T08:45:52;99000.63;;;4.04;68.90
19751;BME280;4663;49.120;9.730;2023-04-03T08:48:24;98996.56;;;4.13;68.53
19751;BME280;4663;49.120;9.730;2023-04-03T08:50:54;98998.38;;;4.69;68.48
19751;BME280;4663;49.120;9.730;2023-04-03T08:53:25;98988.34;;;5.15;67.60
19751;BME280;4663;49.120;9.730;2023-04-03T08:55:55;98990.94;;;4.17;67.74
19751;BME280;4663;49.120;9.730;2023-04-03T08:58:29;98995.13;;;4.78;67.65
19751;BME280;4663;49.120;9.730;2023-04-03T09:03:42;98989.91;;;4.77;67.66
19751;BME280;4663;49.120;9.730;2023-04-03T09:06:15;98988.47;;;4.85;66.60
19751;BME280;4663;49.120;9.730;2023-04-03T09:08:58;98991.72;;;4.76;66.52
19751;BME280;4663;49.120;9.730;2023-04-03T09:14:36;98989.81;;;4.78;66.35
19751;BME280;4663;49.120;9.730;2023-04-03T09:17:12;98997.63;;;4.67;67.01
19751;BME280;4663;49.120;9.730;2023-04-03T09:22:24;98987.66;;;5.38;65.93
19751;BME280;4663;49.120;9.730;2023-04-03T09:27:32;99000.22;;;4.96;66.71
19751;BME280;4663;49.120;9.730;2023-04-03T09:29:58;98977.06;;;5.11;66.14
19751;BME280;4663;49.120;9.730;2023-04-03T09:32:34;98973.09;;;5.44;65.52
19751;BME280;4663;49.120;9.730;2023-04-03T09:35:15;99000.66;;;5.43;66.22
19751;BME280;4663;49.120;9.730;2023-04-03T09:37:43;98991.81;;;5.43;65.54
19751;BME280;4663;49.120;9.730;2023-04-03T09:40:30;98986.59;;;5.28;65.54
19751;BME280;4663;49.120;9.730;2023-04-03T09:43:08;98980.50;;;5.80;65.19
19751;BME280;4663;49.120;9.730;2023-04-03T09:45:45;98995.00;;;5.75;65.56
19751;BME280;4663;49.120;9.730;2023-04-03T09:51:01;98986.16;;;5.34;65.63
19751;BME280;4663;49.120;9.730;2023-04-03T09:55:59;98990.69;;;5.47;65.49
19751;BME280;4663;49.120;9.730;2023-04-03T09:58:28;98970.88;;;5.51;64.55
19751;BME280;4663;49.120;9.730;2023-04-03T10:00:59;98979.28;;;5.45;64.42
19751;BME280;4663;49.120;9.730;2023-04-03T10:03:30;98982.00;;;5.17;64.83
19751;BME280;4663;49.120;9.730;2023-04-03T10:05:56;98979.03;;;4.94;65.48
19751;BME280;4663;49.120;9.730;2023-04-03T10:11:15;98955.53;;;5.42;62.69
19751;BME280;4663;49.120;9.730;2023-04-03T10:13:59;98957.09;;;5.85;63.36
19751;BME280;4663;49.120;9.730;2023-04-03T10:16:47;98957.44;;;6.31;63.36
19751;BME280;4663;49.120;9.730;2023-04-03T10:19:43;98970.31;;;5.33;64.11
19751;BME280;4663;49.120;9.730;2023-04-03T10:27:42;98948.44;;;5.15;62.58
19751;BME280;4663;49.120;9.730;2023-04-03T10:30:19;98943.84;;;5.57;61.95
19751;BME280;4663;49.120;9.730;2023-04-03T10:38:21;98946.94;;;5.10;61.46
19751;BME280;4663;49.120;9.730;2023-04-03T10:41:02;98956.22;;;5.58;61.47
19751;BME280;4663;49.120;9.730;2023-04-03T10:46:30;98935.03;;;5.16;60.85
19751;BME280;4663;49.120;9.730;2023-04-03T10:49:18;98927.81;;;5.18;60.66
19751;BME280;4663;49.120;9.730;2023-04-03T10:51:54;98922.78;;;5.54;59.98
19751;BME280;4663;49.120;9.730;2023-04-03T10:54:27;98944.22;;;5.25;60.77
19751;BME280;4663;49.120;9.730;2023-04-03T10:56:57;98908.13;;;5.21;58.51
19751;BME280;4663;49.120;9.730;2023-04-03T10:59:35;98933.41;;;5.54;59.40
19751;BME280;4663;49.120;9.730;2023-04-03T11:05:05;98909.75;;;5.36;58.81
19751;BME280;4663;49.120;9.730;2023-04-03T11:07:40;98925.50;;;5.27;59.35
19751;BME280;4663;49.120;9.730;2023-04-03T11:10:22;98925.72;;;5.36;59.96
19751;BME280;4663;49.120;9.730;2023-04-03T11:12:54;98905.28;;;5.24;58.78
19751;BME280;4663;49.120;9.730;2023-04-03T11:15:24;98900.78;;;5.11;58.81
19751;BME280;4663;49.120;9.730;2023-04-03T11:18:20;98936.41;;;5.62;60.07
19751;BME280;4663;49.120;9.730;2023-04-03T11:20:58;98937.44;;;5.47;59.80
19751;BME280;4663;49.120;9.730;2023-04-03T11:23:29;98900.34;;;5.18;58.24
19751;BME280;4663;49.120;9.730;2023-04-03T11:26:11;98923.91;;;5.50;59.95
19751;BME280;4663;49.120;9.730;2023-04-03T11:28:37;98910.41;;;5.92;58.78
19751;BME280;4663;49.120;9.730;2023-04-03T11:36:58;98899.19;;;6.13;56.77
19751;BME280;4663;49.120;9.730;2023-04-03T11:39:29;98883.97;;;6.64;55.68
19751;BME280;4663;49.120;9.730;2023-04-03T11:42:34;98885.31;;;6.70;55.85
19751;BME280;4663;49.120;9.730;2023-04-03T11:50:46;98866.09;;;5.91;55.06
19751;BME280;4663;49.120;9.730;2023-04-03T11:58:23;98882.84;;;6.55;55.97
19751;BME280;4663;49.120;9.730;2023-04-03T12:01:08;98915.41;;;6.96;58.49
19751;BME280;4663;49.120;9.730;2023-04-03T12:16:28;98859.03;;;6.03;55.61
19751;BME280;4663;49.120;9.730;2023-04-03T12:19:04;98855.03;;;5.84;54.61
19751;BME280;4663;49.120;9.730;2023-04-03T12:48:14;98810.59;;;6.47;52.01
19751;BME280;4663;49.120;9.730;2023-04-03T12:50:41;98824.50;;;6.14;53.17
19751;BME280;4663;49.120;9.730;2023-04-03T12:53:18;98829.34;;;6.21;53.08
19751;BME280;4663;49.120;9.730;2023-04-03T12:55:44;98831.28;;;6.19;53.78
19751;BME280;4663;49.120;9.730;2023-04-03T12:58:15;98832.38;;;6.65;53.04
19751;BME280;4663;49.120;9.730;2023-04-03T13:00:42;98827.44;;;6.23;53.21
19751;BME280;4663;49.120;9.730;2023-04-03T13:03:22;98817.34;;;6.02;53.13
19751;BME280;4663;49.120;9.730;2023-04-03T13:05:49;98833.56;;;6.36;54.42
19751;BME280;4663;49.120;9.730;2023-04-03T13:08:16;98805.03;;;5.88;52.38
19751;BME280;4663;49.120;9.730;2023-04-03T13:11:01;98811.81;;;6.05;53.10
19751;BME280;4663;49.120;9.730;2023-04-03T13:13:28;98791.28;;;5.94;51.39
19751;BME280;4663;49.120;9.730;2023-04-03T13:15:54;98798.56;;;6.17;52.20
19751;BME280;4663;49.120;9.730;2023-04-03T13:18:36;98784.97;;;6.08;51.79
19751;BME280;4663;49.120;9.730;2023-04-03T13:21:15;98795.75;;;6.67;51.84
19751;BME280;4663;49.120;9.730;2023-04-03T13:23:45;98809.75;;;6.82;51.76
19751;BME280;4663;49.120;9.730;2023-04-03T13:26:12;98812.34;;;6.10;52.54
19751;BME280;4663;49.120;9.730;2023-04-03T13:28:41;98832.31;;;5.92;53.21
19751;BME280;4663;49.120;9.730;2023-04-03T13:33:53;98807.75;;;5.49;53.03
19751;BME280;4663;49.120;9.730;2023-04-03T13:36:27;98816.78;;;5.85;53.25
19751;BME280;4663;49.120;9.730;2023-04-03T13:41:45;98779.94;;;5.79;51.65
19751;BME280;4663;49.120;9.730;2023-04-03T13:44:35;98815.66;;;6.38;53.46
19751;BME280;4663;49.120;9.730;2023-04-03T13:49:38;98770.66;;;6.09;50.47
19751;BME280;4663;49.120;9.730;2023-04-03T13:52:25;98792.03;;;6.21;51.20
19751;BME280;4663;49.120;9.730;2023-04-03T13:54:57;98771.28;;;6.37;50.49
19751;BME280;4663;49.120;9.730;2023-04-03T13:57:24;98777.94;;;6.67;50.11
19751;BME280;4663;49.120;9.730;2023-04-03T13:59:51;98783.72;;;6.61;50.84
19751;BME280;4663;49.120;9.730;2023-04-03T14:02:34;98775.09;;;6.46;50.43
19751;BME280;4663;49.120;9.730;2023-04-03T14:05:04;98796.84;;;6.40;52.27
19751;BME280;4663;49.120;9.730;2023-04-03T14:07:34;98794.03;;;6.06;52.71
19751;BME280;4663;49.120;9.730;2023-04-03T14:09:59;98797.31;;;5.72;52.79
19751;BME280;4663;49.120;9.730;2023-04-03T14:12:36;98789.75;;;5.66;52.67
19751;BME280;4663;49.120;9.730;2023-04-03T14:15:16;98784.34;;;5.67;52.22
19751;BME280;4663;49.120;9.730;2023-04-03T14:17:43;98781.84;;;6.14;51.71
19751;BME280;4663;49.120;9.730;2023-04-03T14:20:16;98781.00;;;6.38;51.96
19751;BME280;4663;49.120;9.730;2023-04-03T14:22:42;98767.13;;;6.58;50.89
19751;BME280;4663;49.120;9.730;2023-04-03T14:25:08;98779.53;;;6.10;51.57
19751;BME280;4663;49.120;9.730;2023-04-03T14:27:38;98784.09;;;5.83;52.28
19751;BME280;4663;49.120;9.730;2023-04-03T14:30:09;98806.50;;;5.68;53.91
19751;BME280;4663;49.120;9.730;2023-04-03T14:32:34;98781.25;;;5.73;52.43
19751;BME280;4663;49.120;9.730;2023-04-03T14:35:00;98790.31;;;5.45;52.78
19751;BME280;4663;49.120;9.730;2023-04-03T14:37:28;98782.44;;;5.56;52.67
19751;BME280;4663;49.120;9.730;2023-04-03T14:39:55;98781.03;;;6.01;52.09
19751;BME280;4663;49.120;9.730;2023-04-03T14:42:24;98774.44;;;5.94;51.34
19751;BME280;4663;49.120;9.730;2023-04-03T14:44:50;98775.94;;;5.98;52.17
19751;BME280;4663;49.120;9.730;2023-04-03T14:47:19;98765.63;;;5.93;51.25
19751;BME280;4663;49.120;9.730;2023-04-03T14:49:46;98749.72;;;5.67;50.87
19751;BME280;4663;49.120;9.730;2023-04-03T14:52:21;98771.00;;;5.80;51.86
19751;BME280;4663;49.120;9.730;2023-04-03T14:54:47;98770.69;;;5.72;51.80
19751;BME280;4663;49.120;9.730;2023-04-03T14:57:15;98763.31;;;6.13;51.91
19751;BME280;4663;49.120;9.730;2023-04-03T14:59:41;98772.16;;;6.13;52.44
19751;BME280;4663;49.120;9.730;2023-04-03T15:02:26;98762.41;;;6.25;51.56
19751;BME280;4663;49.120;9.730;2023-04-03T15:04:54;98744.97;;;5.84;51.50
19751;BME280;4663;49.120;9.730;2023-04-03T15:07:20;98744.78;;;5.74;51.24
19751;BME280;4663;49.120;9.730;2023-04-03T15:09:46;98756.44;;;5.60;51.46
19751;BME280;4663;49.120;9.730;2023-04-03T15:12:12;98759.47;;;5.55;51.79
19751;BME280;4663;49.120;9.730;2023-04-03T15:14:37;98759.97;;;5.60;51.77
19751;BME280;4663;49.120;9.730;2023-04-03T15:17:06;98776.94;;;5.84;53.40